createdAt,value
2023-04-28T00:00:33.236Z,10.60
2023-04-28T00:03:18.135Z,11.10
2023-04-28T00:05:47.832Z,10.40
2023-04-28T00:08:15.855Z,11.20
2023-04-28T00:10:43.829Z,10.90
2023-04-28T00:13:11.796Z,10.80
2023-04-28T00:15:40.478Z,12.20
2023-04-28T00:18:08.687Z,12.40
2023-04-28T00:20:36.836Z,11.80
2023-04-28T00:23:04.913Z,10.70
2023-04-28T00:25:33.213Z,12.30
2023-04-28T00:28:01.890Z,11.40
2023-04-28T00:30:31.002Z,11.90
2023-04-28T00:32:59.038Z,10.90
2023-04-28T00:35:27.122Z,11.10
2023-04-28T00:37:55.246Z,10.60
2023-04-28T00:40:23.469Z,10.90
2023-04-28T00:42:51.671Z,11.70
2023-04-28T00:45:20.828Z,11.90
2023-04-28T00:47:48.885Z,11.10
2023-04-28T00:50:17.554Z,11.40
2023-04-28T00:52:45.798Z,11.70
2023-04-28T00:55:15.510Z,12.80
2023-04-28T00:57:43.503Z,12.20
2023-04-28T01:00:11.984Z,11.60
2023-04-28T01:02:40.176Z,11.20
2023-04-28T01:05:10.084Z,11.10
2023-04-28T01:07:39.239Z,11.30
2023-04-28T01:10:08.824Z,11.00
2023-04-28T01:12:37.066Z,11.10
2023-04-28T01:15:05.936Z,11.70
2023-04-28T01:17:34.469Z,11.50
2023-04-28T01:20:03.182Z,12.90
2023-04-28T01:22:31.137Z,11.20
2023-04-28T01:25:00.358Z,12.50
2023-04-28T01:27:28.666Z,13.90
2023-04-28T01:29:58.648Z,13.80
2023-04-28T01:32:26.952Z,15.40
2023-04-28T01:34:54.969Z,14.10
2023-04-28T01:37:22.969Z,12.80
2023-04-28T01:39:51.033Z,13.80
2023-04-28T01:42:19.833Z,14.00
2023-04-28T01:44:47.912Z,14.10
2023-04-28T01:47:16.110Z,13.40
2023-04-28T01:49:44.099Z,13.10
2023-04-28T01:52:12.104Z,12.20
2023-04-28T01:54:39.976Z,13.30
2023-04-28T01:57:08.326Z,13.40
2023-04-28T01:59:37.048Z,13.50
2023-04-28T02:02:06.666Z,14.30
2023-04-28T02:04:34.869Z,13.10
2023-04-28T02:07:02.773Z,13.20
2023-04-28T02:09:30.871Z,12.80
2023-04-28T02:12:00.376Z,11.00
2023-04-28T02:14:29.880Z,12.10
2023-04-28T02:16:59.191Z,11.90
2023-04-28T02:19:27.650Z,12.70
2023-04-28T02:21:55.931Z,11.40
2023-04-28T02:24:23.964Z,13.30
2023-04-28T02:26:51.971Z,13.20
2023-04-28T02:29:20.620Z,14.10
2023-04-28T02:31:48.858Z,14.20
2023-04-28T02:34:17.144Z,14.10
2023-04-28T02:36:46.548Z,13.80
2023-04-28T02:39:14.487Z,14.30
2023-04-28T02:41:43.019Z,13.50
2023-04-28T02:44:11.308Z,13.00
2023-04-28T02:46:39.356Z,14.30
2023-04-28T02:49:07.816Z,14.70
2023-04-28T02:51:36.107Z,14.10
2023-04-28T02:54:04.745Z,13.40
2023-04-28T02:56:33.772Z,13.00
2023-04-28T02:59:02.156Z,13.60
2023-04-28T03:01:30.166Z,12.90
2023-04-28T03:03:59.070Z,13.10
2023-04-28T03:06:28.503Z,12.90
2023-04-28T03:08:56.465Z,12.60
2023-04-28T03:11:24.486Z,12.40
2023-04-28T03:13:53.324Z,13.20
2023-04-28T03:16:21.465Z,12.70
2023-04-28T03:18:49.769Z,12.30
2023-04-28T03:21:17.639Z,12.10
2023-04-28T03:23:46.015Z,11.50
2023-04-28T03:26:14.170Z,11.70
2023-04-28T03:28:43.479Z,12.60
2023-04-28T03:31:11.644Z,12.60
2023-04-28T03:33:39.641Z,12.50
2023-04-28T03:36:08.235Z,12.60
2023-04-28T03:38:36.219Z,11.60
2023-04-28T03:41:04.505Z,12.10
2023-04-28T03:43:33.749Z,12.00
2023-04-28T03:46:16.233Z,11.60
2023-04-28T03:48:46.313Z,10.50
2023-04-28T03:51:14.526Z,11.00
2023-04-28T03:53:42.888Z,11.20
2023-04-28T03:56:11.233Z,10.90
2023-04-28T03:58:41.170Z,11.20
2023-04-28T04:05:19.714Z,10.60
2023-04-28T04:07:48.604Z,10.90
2023-04-28T04:10:17.172Z,11.20
2023-04-28T04:12:45.698Z,9.90
2023-04-28T04:15:13.895Z,12.10
2023-04-28T04:17:43.171Z,11.70
2023-04-28T04:20:11.501Z,12.40
2023-04-28T04:22:39.679Z,11.80
2023-04-28T04:25:08.249Z,11.50
2023-04-28T04:27:36.484Z,11.50
2023-04-28T04:34:38.124Z,11.20
2023-04-28T04:37:06.742Z,9.80
2023-04-28T04:39:35.876Z,10.30
2023-04-28T04:42:16.757Z,11.60
2023-04-28T04:45:10.049Z,11.20
2023-04-28T04:47:38.385Z,10.90
2023-04-28T04:50:07.538Z,11.30
2023-04-28T04:52:35.751Z,10.60
2023-04-28T08:09:55.324Z,2.30
2023-04-28T08:12:23.520Z,2.50
2023-04-28T08:14:51.639Z,2.60
2023-04-28T08:17:20.269Z,2.40
2023-04-28T08:19:49.112Z,2.10
2023-04-28T08:22:17.246Z,2.10
2023-04-28T08:24:46.286Z,1.80
2023-04-28T08:27:14.576Z,1.90
2023-04-28T08:29:43.024Z,2.00
2023-04-28T08:32:12.565Z,2.10
2023-04-28T08:34:40.719Z,2.30
2023-04-28T08:37:09.026Z,2.30
2023-04-28T08:39:37.627Z,1.70
2023-04-28T08:42:06.066Z,1.80
2023-04-28T08:44:39.552Z,2.20
2023-04-28T08:47:36.987Z,1.90
2023-04-28T08:50:09.797Z,1.90
2023-04-28T08:52:41.283Z,2.00
2023-04-28T08:55:12.934Z,1.10
2023-04-28T08:57:46.065Z,2.00
2023-04-28T09:00:15.160Z,2.00
2023-04-28T09:02:43.522Z,1.60
2023-04-28T09:05:13.820Z,1.90
2023-04-28T09:07:46.058Z,1.90
2023-04-28T09:10:19.773Z,1.20
2023-04-28T09:12:52.772Z,1.50
2023-04-28T09:15:34.037Z,2.10
2023-04-28T09:18:07.007Z,1.20
2023-04-28T09:20:36.444Z,1.50
2023-04-28T09:23:19.258Z,1.40
2023-04-28T09:26:03.457Z,1.60
2023-04-28T09:28:32.980Z,1.60
2023-04-28T09:31:01.652Z,1.60
2023-04-28T09:33:30.270Z,1.50
2023-04-28T09:35:58.916Z,1.60
2023-04-28T09:38:27.477Z,1.60
2023-04-28T09:41:01.229Z,1.30
2023-04-28T09:43:34.468Z,1.50
2023-04-28T09:46:04.984Z,2.00
2023-04-28T09:48:34.326Z,1.30
2023-04-28T09:51:06.190Z,1.50
2023-04-28T09:53:35.897Z,1.60
2023-04-28T09:56:05.495Z,1.50
2023-04-28T09:58:36.362Z,1.90
2023-04-28T10:01:06.953Z,1.30
2023-04-28T10:03:36.414Z,1.70
2023-04-28T10:06:07.123Z,1.50
2023-04-28T10:08:35.650Z,1.90
2023-04-28T10:11:04.105Z,1.30
2023-04-28T10:13:32.770Z,1.60
2023-04-28T10:16:02.234Z,1.80
2023-04-28T10:18:32.061Z,2.00
2023-04-28T10:21:03.832Z,1.80
2023-04-28T10:24:01.461Z,1.80
2023-04-28T10:26:54.917Z,1.80
2023-04-28T10:29:27.978Z,1.80
2023-04-28T10:32:22.415Z,2.00
2023-04-28T10:34:50.769Z,2.30
2023-04-28T10:37:19.651Z,2.10
2023-04-28T10:40:27.785Z,1.80
2023-04-28T10:42:56.896Z,2.00
2023-04-28T10:45:56.114Z,2.40
2023-04-28T10:48:35.080Z,2.50
2023-04-28T10:51:03.587Z,2.20
2023-04-28T10:53:48.445Z,2.40
2023-04-28T10:56:21.746Z,2.50
2023-04-28T10:58:58.200Z,39.50
2023-04-28T11:05:12.912Z,3.70
2023-04-28T11:07:41.728Z,2.30
2023-04-28T11:10:10.523Z,3.20
2023-04-28T11:13:17.278Z,3.10
2023-04-28T11:16:03.278Z,2.70
2023-04-28T11:18:55.380Z,2.20
2023-04-28T11:21:26.011Z,2.50
2023-04-28T11:23:54.576Z,2.70
2023-04-28T11:26:25.540Z,6.30
2023-04-28T11:28:56.270Z,2.90
2023-04-28T11:31:26.347Z,2.70
2023-04-28T11:33:59.580Z,3.40
2023-04-28T11:36:33.615Z,2.70
2023-04-28T11:39:07.920Z,3.50
2023-04-28T11:41:39.569Z,3.40
2023-04-28T11:44:14.320Z,3.30
2023-04-28T11:46:47.255Z,3.60
2023-04-28T11:49:15.143Z,3.40
2023-04-28T11:51:45.078Z,4.00
2023-04-28T11:54:14.962Z,3.10
2023-04-28T11:56:42.908Z,3.20
2023-04-28T11:59:13.258Z,3.60
2023-04-28T12:01:48.614Z,4.00
2023-04-28T12:04:37.973Z,3.60
2023-04-28T12:07:16.473Z,3.60
2023-04-28T12:10:05.594Z,5.10
2023-04-28T12:12:48.947Z,5.90
2023-04-28T12:15:21.676Z,4.10
2023-04-28T12:17:51.365Z,3.70
2023-04-28T12:20:40.800Z,3.70
2023-04-28T12:23:09.653Z,4.00
2023-04-28T12:25:44.619Z,3.50
2023-04-28T12:28:12.637Z,3.80
2023-04-28T12:30:44.039Z,3.40
2023-04-28T12:33:25.933Z,3.40
2023-04-28T12:35:56.050Z,4.30
2023-04-28T12:38:25.399Z,4.40
2023-04-28T12:40:54.042Z,4.60
2023-04-28T12:43:24.411Z,4.50
2023-04-28T12:45:54.399Z,20.10
2023-04-28T12:48:25.773Z,4.30
2023-04-28T12:50:53.753Z,4.50
2023-04-28T12:53:22.542Z,4.60
2023-04-28T12:55:50.550Z,4.60
2023-04-28T12:58:18.561Z,5.60
2023-04-28T13:00:46.696Z,4.10
2023-04-28T13:03:16.120Z,4.20
2023-04-28T13:05:45.588Z,4.30
2023-04-28T13:08:14.151Z,3.70
2023-04-28T13:10:42.119Z,4.30
2023-04-28T13:13:10.215Z,4.10
2023-04-28T13:15:39.008Z,3.80
2023-04-28T13:18:07.306Z,4.10
2023-04-28T13:20:35.482Z,4.30
2023-04-28T13:23:03.611Z,9.60
2023-04-28T13:25:31.861Z,6.00
2023-04-28T13:27:59.762Z,4.10
2023-04-28T13:30:27.893Z,4.00
2023-04-28T13:32:57.624Z,3.80
2023-04-28T13:35:26.442Z,4.30
2023-04-28T13:37:56.308Z,3.60
2023-04-28T13:40:24.480Z,3.40
2023-04-28T13:42:52.381Z,5.00
2023-04-28T13:45:22.022Z,4.50
2023-04-28T13:47:51.165Z,17.40
2023-04-28T13:50:19.452Z,14.50
2023-04-28T13:52:47.774Z,9.00
2023-04-28T13:55:15.893Z,3.80
2023-04-28T13:57:43.818Z,3.70
2023-04-28T14:00:12.685Z,4.00
2023-04-28T14:02:41.680Z,19.80
2023-04-28T14:05:10.015Z,11.40
2023-04-28T14:07:38.258Z,12.20
2023-04-28T14:10:07.008Z,7.10
2023-04-28T14:12:35.180Z,3.80
2023-04-28T14:15:03.285Z,5.60
2023-04-28T14:17:32.935Z,3.70
2023-04-28T14:20:01.877Z,4.90
2023-04-28T14:22:30.174Z,3.90
2023-04-28T14:24:58.879Z,3.80
2023-04-28T14:27:27.767Z,3.90
2023-04-28T14:29:55.934Z,3.70
2023-04-28T14:32:23.918Z,4.30
2023-04-28T14:34:51.974Z,3.60
2023-04-28T14:37:20.421Z,4.00
2023-04-28T14:39:49.569Z,6.00
2023-04-28T14:42:17.614Z,4.40
2023-04-28T14:44:46.456Z,3.70
2023-04-28T14:47:14.642Z,3.60
2023-04-28T14:49:42.596Z,4.10
2023-04-28T14:52:10.812Z,3.30
2023-04-28T14:54:39.393Z,3.60
2023-04-28T14:57:07.554Z,3.90
2023-04-28T14:59:36.020Z,3.80
2023-04-28T15:02:04.269Z,4.00
2023-04-28T15:04:32.749Z,3.90
2023-04-28T15:07:01.827Z,3.80
2023-04-28T15:09:31.070Z,4.30
2023-04-28T15:11:59.076Z,3.60
2023-04-28T15:14:26.954Z,4.40
2023-04-28T15:16:55.197Z,32.60
2023-04-28T15:19:24.366Z,15.90
2023-04-28T15:21:52.773Z,5.20
2023-04-28T15:24:23.481Z,4.60
2023-04-28T15:26:51.582Z,4.20
2023-04-28T15:29:19.558Z,3.90
2023-04-28T15:31:48.386Z,7.00
2023-04-28T15:34:16.422Z,7.30
2023-04-28T15:36:45.896Z,4.70
2023-04-28T15:39:16.053Z,3.20
2023-04-28T15:41:43.906Z,19.30
2023-04-28T15:44:11.791Z,5.70
2023-04-28T15:46:40.238Z,3.70
2023-04-28T15:49:08.845Z,4.20
2023-04-28T15:51:37.079Z,4.40
2023-04-28T15:54:05.237Z,3.90
2023-04-28T15:56:34.237Z,3.90
2023-04-28T15:59:02.665Z,4.20
2023-04-28T16:01:30.611Z,5.20
2023-04-28T16:03:58.844Z,14.60
2023-04-28T16:06:26.985Z,4.60
2023-04-28T16:08:57.019Z,4.00
2023-04-28T16:11:25.279Z,4.50
2023-04-28T16:13:53.451Z,4.00
2023-04-28T16:16:23.377Z,4.00
2023-04-28T16:18:51.492Z,4.30
2023-04-28T16:21:19.517Z,3.90
2023-04-28T16:23:50.920Z,3.70
2023-04-28T16:26:19.339Z,4.00
2023-04-28T16:28:47.757Z,4.10
2023-04-28T16:31:16.378Z,3.90
2023-04-28T16:33:44.376Z,4.90
2023-04-28T16:36:12.294Z,4.40
2023-04-28T16:38:41.099Z,3.90
2023-04-28T16:41:08.992Z,4.90
2023-04-28T16:43:38.312Z,3.90
2023-04-28T16:46:07.670Z,4.20
2023-04-28T16:48:35.901Z,3.70
2023-04-28T16:51:08.174Z,3.70
2023-04-28T16:53:36.598Z,3.60
2023-04-28T16:56:04.941Z,4.00
2023-04-28T16:58:33.152Z,3.60
2023-04-28T17:01:01.331Z,3.80
2023-04-28T17:03:29.495Z,3.90
2023-04-28T17:05:59.342Z,3.70
2023-04-28T17:08:28.099Z,4.50
2023-04-28T17:10:56.309Z,4.70
2023-04-28T17:13:24.415Z,5.90
2023-04-28T17:15:57.492Z,5.80
2023-04-28T17:18:26.658Z,6.30
2023-04-28T17:20:56.753Z,7.50
2023-04-28T17:23:25.077Z,7.30
2023-04-28T17:25:53.054Z,7.70
2023-04-28T17:28:21.332Z,7.90
2023-04-28T17:30:50.467Z,12.40
2023-04-28T17:33:19.499Z,15.50
2023-04-28T17:35:47.499Z,10.30
2023-04-28T17:38:16.354Z,8.80
2023-04-28T17:40:48.579Z,9.20
2023-04-28T17:43:17.017Z,10.10
2023-04-28T17:45:45.070Z,9.30
2023-04-28T17:48:13.858Z,8.70
2023-04-28T17:50:41.968Z,8.50
2023-04-28T17:53:10.631Z,7.20
2023-04-28T17:55:39.908Z,7.10
2023-04-28T17:58:08.313Z,6.70
2023-04-28T18:00:36.559Z,6.40
2023-04-28T18:03:04.625Z,6.90
2023-04-28T18:05:35.399Z,8.00
2023-04-28T18:08:04.283Z,6.80
2023-04-28T18:10:32.655Z,7.20
2023-04-28T18:13:02.010Z,7.00
2023-04-28T18:15:30.859Z,6.90
2023-04-28T18:17:58.947Z,10.10
2023-04-28T18:20:26.950Z,9.70
2023-04-28T18:22:56.625Z,9.20
2023-04-28T18:25:24.659Z,9.40
2023-04-28T18:27:53.973Z,9.40
2023-04-28T18:30:22.173Z,9.90
2023-04-28T18:32:51.002Z,9.70
2023-04-28T18:35:19.657Z,9.40
2023-04-28T18:37:47.814Z,11.60
2023-04-28T18:40:16.324Z,10.60
2023-04-28T18:42:44.272Z,10.70
2023-04-28T18:47:41.049Z,9.70
2023-04-28T18:50:09.503Z,9.30
2023-04-28T18:52:38.358Z,9.20
2023-04-28T18:55:06.713Z,9.70
2023-04-28T18:57:34.768Z,10.80
2023-04-28T19:04:42.120Z,10.50
2023-04-28T19:07:11.463Z,10.50
2023-04-28T19:09:39.713Z,10.40
2023-04-28T19:12:08.620Z,10.20
2023-04-28T19:14:37.178Z,11.50
2023-04-28T19:17:05.394Z,10.60
2023-04-28T19:19:34.168Z,10.20
2023-04-28T19:22:03.328Z,10.80
2023-04-28T19:24:31.551Z,11.10
2023-04-28T19:27:01.683Z,10.50
2023-04-28T19:29:29.815Z,11.50
2023-04-28T19:31:58.080Z,10.40
2023-04-28T19:34:27.001Z,11.70
2023-04-28T19:36:56.125Z,11.70
2023-04-28T19:39:24.335Z,12.30
2023-04-28T19:41:54.587Z,12.00
2023-04-28T19:44:23.116Z,13.20
2023-04-28T19:46:51.446Z,12.50
2023-04-28T19:49:19.641Z,13.80
2023-04-28T19:51:47.786Z,12.20
2023-04-28T19:54:16.838Z,14.20
2023-04-28T19:56:45.028Z,17.40
2023-04-28T19:59:13.120Z,17.10
2023-04-28T20:01:43.737Z,14.40
2023-04-28T20:04:15.713Z,16.80
2023-04-28T20:06:44.272Z,19.90
2023-04-28T20:09:12.475Z,18.40
2023-04-28T20:11:41.500Z,17.80
2023-04-28T20:14:09.848Z,23.50
2023-04-28T20:16:38.081Z,21.20
2023-04-28T20:19:06.349Z,20.00
2023-04-28T20:21:35.330Z,21.70
2023-04-28T20:24:03.753Z,18.70
2023-04-28T20:26:31.928Z,20.30
2023-04-28T20:29:00.519Z,20.00
2023-04-28T20:31:28.614Z,19.40
2023-04-28T20:33:56.705Z,17.40
2023-04-28T20:36:25.441Z,17.40
2023-04-28T20:38:54.052Z,42.80
2023-04-28T20:41:22.185Z,39.90
2023-04-28T20:43:52.449Z,32.20
2023-04-28T20:46:22.055Z,35.80
2023-04-28T20:48:50.687Z,28.00
2023-04-28T20:51:20.062Z,24.30
2023-04-28T20:53:48.201Z,26.50
2023-04-28T20:56:16.392Z,22.40
2023-04-28T20:58:46.480Z,18.40
2023-04-28T21:04:06.841Z,21.80
2023-04-28T21:06:35.195Z,21.10
2023-04-28T21:09:03.235Z,19.10
2023-04-28T21:11:31.452Z,19.20
2023-04-28T21:14:00.063Z,17.60
2023-04-28T21:16:28.236Z,13.80
2023-04-28T21:18:56.783Z,13.60
2023-04-28T21:21:24.938Z,13.60
2023-04-28T21:23:53.245Z,16.30
2023-04-28T21:26:22.444Z,15.00
2023-04-28T21:28:51.007Z,14.70
2023-04-28T21:31:19.187Z,13.80
2023-04-28T21:33:47.488Z,13.60
2023-04-28T21:36:15.747Z,13.30
2023-04-28T21:38:44.119Z,12.40
2023-04-28T21:41:13.178Z,14.00
2023-04-28T21:43:41.240Z,12.70
2023-04-28T21:46:09.800Z,13.60
2023-04-28T21:48:38.641Z,13.80
2023-04-28T21:51:06.704Z,13.00
2023-04-28T21:53:34.833Z,12.50
2023-04-28T21:56:04.413Z,12.50
2023-04-28T21:58:57.746Z,13.10
2023-04-28T22:01:27.304Z,12.80
2023-04-28T22:03:56.340Z,12.30
2023-04-28T22:06:25.340Z,13.20
2023-04-28T22:08:54.059Z,12.50
2023-04-28T22:11:22.197Z,11.50
2023-04-28T22:13:50.392Z,14.40
2023-04-28T22:16:18.548Z,13.00
2023-04-28T22:18:46.867Z,12.60
2023-04-28T22:21:16.810Z,12.20
2023-04-28T22:23:45.057Z,12.00
2023-04-28T22:26:14.594Z,12.40
2023-04-28T22:28:42.918Z,12.40
2023-04-28T22:31:11.224Z,12.70
2023-04-28T22:33:39.513Z,11.70
2023-04-28T22:36:07.790Z,12.10
2023-04-28T22:38:35.836Z,12.90
2023-04-28T22:41:04.024Z,11.90
2023-04-28T22:43:32.577Z,12.00
2023-04-28T22:46:01.101Z,11.70
2023-04-28T22:48:30.365Z,12.10
2023-04-28T22:50:58.660Z,12.90
2023-04-28T22:53:26.701Z,12.40
2023-04-28T22:55:56.805Z,12.60
2023-04-28T22:58:25.191Z,12.70
2023-04-28T23:00:53.475Z,11.90
2023-04-28T23:03:21.733Z,11.90
2023-04-28T23:05:49.923Z,12.00
2023-04-28T23:08:17.962Z,11.90
2023-04-28T23:10:46.429Z,11.70
2023-04-28T23:13:14.656Z,12.10
2023-04-28T23:15:43.048Z,12.30
2023-04-28T23:18:11.222Z,11.50
2023-04-28T23:20:39.581Z,12.70
2023-04-28T23:23:07.624Z,12.10
2023-04-28T23:25:36.497Z,13.00
2023-04-28T23:28:04.750Z,11.90
2023-04-28T23:30:32.882Z,12.30
2023-04-28T23:33:01.237Z,12.10
2023-04-28T23:35:29.539Z,12.70
2023-04-28T23:37:57.703Z,13.10
2023-04-28T23:40:26.957Z,12.40
2023-04-28T23:42:55.042Z,12.80
2023-04-28T23:45:23.229Z,12.80
2023-04-28T23:47:51.507Z,14.40
2023-04-28T23:50:19.835Z,13.20
2023-04-28T23:53:12.797Z,12.90
2023-04-28T23:55:40.817Z,12.60
2023-04-28T23:58:09.278Z,13.30
